sensor_id;sensor_type;location;lat;lon;timestamp;temperature;humidity
8103;DHT22;4094;49.948;11.574;2023-09-07T00:01:06;20.30;64.10
8103;DHT22;4094;49.948;11.574;2023-09-07T00:03:37;20.30;64.10
8103;DHT22;4094;49.948;11.574;2023-09-07T00:06:09;20.30;64.20
8103;DHT22;4094;49.948;11.574;2023-09-07T00:08:39;20.20;64.00
8103;DHT22;4094;49.948;11.574;2023-09-07T00:11:09;20.20;64.10
8103;DHT22;4094;49.948;11.574;2023-09-07T00:13:38;20.20;64.20
8103;DHT22;4094;49.948;11.574;2023-09-07T00:16:07;20.10;64.20
8103;DHT22;4094;49.948;11.574;2023-09-07T00:18:38;20.10;64.30
8103;DHT22;4094;49.948;11.574;2023-09-07T00:21:07;20.10;64.30
8103;DHT22;4094;49.948;11.574;2023-09-07T00:23:37;20.10;64.30
8103;DHT22;4094;49.948;11.574;2023-09-07T00:26:07;20.00;64.50
8103;DHT22;4094;49.948;11.574;2023-09-07T00:28:37;20.00;64.50
8103;DHT22;4094;49.948;11.574;2023-09-07T00:31:06;19.90;64.50
8103;DHT22;4094;49.948;11.574;2023-09-07T00:33:35;19.90;64.40
8103;DHT22;4094;49.948;11.574;2023-09-07T00:36:07;19.90;64.60
8103;DHT22;4094;49.948;11.574;2023-09-07T00:38:36;19.80;64.50
8103;DHT22;4094;49.948;11.574;2023-09-07T00:41:05;19.80;64.50
8103;DHT22;4094;49.948;11.574;2023-09-07T00:43:34;19.80;64.60
8103;DHT22;4094;49.948;11.574;2023-09-07T00:46:03;19.70;64.70
8103;DHT22;4094;49.948;11.574;2023-09-07T00:48:33;19.70;64.80
8103;DHT22;4094;49.948;11.574;2023-09-07T00:51:02;19.60;64.80
8103;DHT22;4094;49.948;11.574;2023-09-07T00:53:33;19.60;65.00
8103;DHT22;4094;49.948;11.574;2023-09-07T00:56:03;19.60;65.10
8103;DHT22;4094;49.948;11.574;2023-09-07T00:58:33;19.50;65.10
8103;DHT22;4094;49.948;11.574;2023-09-07T01:01:02;19.50;65.20
8103;DHT22;4094;49.948;11.574;2023-09-07T01:03:32;19.50;66.10
8103;DHT22;4094;49.948;11.574;2023-09-07T01:06:04;19.50;65.30
8103;DHT22;4094;49.948;11.574;2023-09-07T01:08:43;19.50;65.50
8103;DHT22;4094;49.948;11.574;2023-09-07T01:11:13;19.40;65.50
8103;DHT22;4094;49.948;11.574;2023-09-07T01:13:44;19.40;65.50
8103;DHT22;4094;49.948;11.574;2023-09-07T01:16:13;19.40;65.50
8103;DHT22;4094;49.948;11.574;2023-09-07T01:18:43;19.40;65.60
8103;DHT22;4094;49.948;11.574;2023-09-07T01:21:14;19.30;65.50
8103;DHT22;4094;49.948;11.574;2023-09-07T01:23:45;19.40;65.60
8103;DHT22;4094;49.948;11.574;2023-09-07T01:26:15;19.30;65.60
8103;DHT22;4094;49.948;11.574;2023-09-07T01:28:45;19.30;65.60
8103;DHT22;4094;49.948;11.574;2023-09-07T01:31:14;19.30;65.70
8103;DHT22;4094;49.948;11.574;2023-09-07T01:33:43;19.20;65.60
8103;DHT22;4094;49.948;11.574;2023-09-07T01:36:12;19.20;65.60
8103;DHT22;4094;49.948;11.574;2023-09-07T01:38:41;19.20;65.70
8103;DHT22;4094;49.948;11.574;2023-09-07T01:41:12;19.10;65.70
8103;DHT22;4094;49.948;11.574;2023-09-07T01:43:41;19.10;65.80
8103;DHT22;4094;49.948;11.574;2023-09-07T01:46:10;19.10;65.90
8103;DHT22;4094;49.948;11.574;2023-09-07T01:48:39;19.00;65.90
8103;DHT22;4094;49.948;11.574;2023-09-07T01:51:10;19.00;66.00
8103;DHT22;4094;49.948;11.574;2023-09-07T01:53:39;19.00;66.00
8103;DHT22;4094;49.948;11.574;2023-09-07T01:56:08;19.00;66.30
8103;DHT22;4094;49.948;11.574;2023-09-07T01:58:39;18.90;66.20
8103;DHT22;4094;49.948;11.574;2023-09-07T02:01:20;18.90;66.30
8103;DHT22;4094;49.948;11.574;2023-09-07T02:03:49;18.90;66.40
8103;DHT22;4094;49.948;11.574;2023-09-07T02:06:19;18.80;66.30
8103;DHT22;4094;49.948;11.574;2023-09-07T02:08:48;18.80;66.30
8103;DHT22;4094;49.948;11.574;2023-09-07T02:11:17;18.80;66.40
8103;DHT22;4094;49.948;11.574;2023-09-07T02:13:48;18.80;66.70
8103;DHT22;4094;49.948;11.574;2023-09-07T02:16:17;18.80;66.70
8103;DHT22;4094;49.948;11.574;2023-09-07T02:18:49;18.70;66.70
8103;DHT22;4094;49.948;11.574;2023-09-07T02:21:19;18.70;66.80
8103;DHT22;4094;49.948;11.574;2023-09-07T02:23:48;18.70;67.60
8103;DHT22;4094;49.948;11.574;2023-09-07T02:26:17;18.70;66.90
8103;DHT22;4094;49.948;11.574;2023-09-07T02:28:48;18.70;66.90
8103;DHT22;4094;49.948;11.574;2023-09-07T02:31:17;18.60;66.90
8103;DHT22;4094;49.948;11.574;2023-09-07T02:33:47;18.60;66.80
8103;DHT22;4094;49.948;11.574;2023-09-07T02:36:16;18.60;66.80
8103;DHT22;4094;49.948;11.574;2023-09-07T02:38:46;18.60;66.80
8103;DHT22;4094;49.948;11.574;2023-09-07T02:41:15;18.60;66.80
8103;DHT22;4094;49.948;11.574;2023-09-07T02:43:44;18.50;66.90
8103;DHT22;4094;49.948;11.574;2023-09-07T02:46:14;18.50;66.90
8103;DHT22;4094;49.948;11.574;2023-09-07T02:48:44;18.50;67.00
8103;DHT22;4094;49.948;11.574;2023-09-07T02:51:13;18.50;67.00
8103;DHT22;4094;49.948;11.574;2023-09-07T02:53:43;18.50;67.20
8103;DHT22;4094;49.948;11.574;2023-09-07T02:56:12;18.40;67.20
8103;DHT22;4094;49.948;11.574;2023-09-07T02:58:41;18.40;67.20
8103;DHT22;4094;49.948;11.574;2023-09-07T03:01:10;18.40;67.30
8103;DHT22;4094;49.948;11.574;2023-09-07T03:03:40;18.40;67.40
8103;DHT22;4094;49.948;11.574;2023-09-07T03:06:13;18.40;67.60
8103;DHT22;4094;49.948;11.574;2023-09-07T03:08:44;18.30;67.40
8103;DHT22;4094;49.948;11.574;2023-09-07T03:11:13;18.40;67.60
8103;DHT22;4094;49.948;11.574;2023-09-07T03:13:42;18.40;67.60
8103;DHT22;4094;49.948;11.574;2023-09-07T03:16:12;18.30;67.60
8103;DHT22;4094;49.948;11.574;2023-09-07T03:18:42;18.40;67.50
8103;DHT22;4094;49.948;11.574;2023-09-07T03:21:12;18.30;67.40
8103;DHT22;4094;49.948;11.574;2023-09-07T03:23:41;18.30;67.40
8103;DHT22;4094;49.948;11.574;2023-09-07T03:26:14;18.30;67.40
8103;DHT22;4094;49.948;11.574;2023-09-07T03:28:43;18.30;67.40
8103;DHT22;4094;49.948;11.574;2023-09-07T03:31:12;18.30;67.30
8103;DHT22;4094;49.948;11.574;2023-09-07T03:33:42;18.20;67.20
8103;DHT22;4094;49.948;11.574;2023-09-07T03:36:11;18.20;67.20
8103;DHT22;4094;49.948;11.574;2023-09-07T03:38:43;18.20;67.10
8103;DHT22;4094;49.948;11.574;2023-09-07T03:41:13;18.20;67.10
8103;DHT22;4094;49.948;11.574;2023-09-07T03:43:42;18.20;67.20
8103;DHT22;4094;49.948;11.574;2023-09-07T03:46:12;18.10;67.10
8103;DHT22;4094;49.948;11.574;2023-09-07T03:48:42;18.10;67.20
8103;DHT22;4094;49.948;11.574;2023-09-07T03:51:11;18.10;67.30
8103;DHT22;4094;49.948;11.574;2023-09-07T03:53:41;18.10;67.30
8103;DHT22;4094;49.948;11.574;2023-09-07T03:56:10;18.10;67.10
8103;DHT22;4094;49.948;11.574;2023-09-07T03:58:40;18.00;67.10
8103;DHT22;4094;49.948;11.574;2023-09-07T04:01:09;18.00;67.90
8103;DHT22;4094;49.948;11.574;2023-09-07T04:03:39;17.90;67.10
8103;DHT22;4094;49.948;11.574;2023-09-07T04:06:11;18.00;67.30
8103;DHT22;4094;49.948;11.574;2023-09-07T04:08:40;17.90;67.30
8103;DHT22;4094;49.948;11.574;2023-09-07T04:11:09;17.90;67.30
8103;DHT22;4094;49.948;11.574;2023-09-07T04:13:39;17.90;67.30
8103;DHT22;4094;49.948;11.574;2023-09-07T04:16:09;17.80;67.40
8103;DHT22;4094;49.948;11.574;2023-09-07T04:18:38;17.80;67.30
8103;DHT22;4094;49.948;11.574;2023-09-07T04:21:07;17.80;67.30
8103;DHT22;4094;49.948;11.574;2023-09-07T04:23:38;17.70;67.20
8103;DHT22;4094;49.948;11.574;2023-09-07T04:26:09;17.70;67.10
8103;DHT22;4094;49.948;11.574;2023-09-07T04:28:38;17.70;67.10
8103;DHT22;4094;49.948;11.574;2023-09-07T04:31:08;17.70;67.10
8103;DHT22;4094;49.948;11.574;2023-09-07T04:33:37;17.70;67.20
8103;DHT22;4094;49.948;11.574;2023-09-07T04:36:08;17.60;67.30
8103;DHT22;4094;49.948;11.574;2023-09-07T04:38:41;17.60;67.40
8103;DHT22;4094;49.948;11.574;2023-09-07T04:41:12;17.60;67.50
8103;DHT22;4094;49.948;11.574;2023-09-07T04:43:42;17.60;67.80
8103;DHT22;4094;49.948;11.574;2023-09-07T04:46:13;17.60;67.80
8103;DHT22;4094;49.948;11.574;2023-09-07T04:48:43;17.60;67.80
8103;DHT22;4094;49.948;11.574;2023-09-07T04:51:12;17.60;67.80
8103;DHT22;4094;49.948;11.574;2023-09-07T04:53:44;17.60;67.80
8103;DHT22;4094;49.948;11.574;2023-09-07T04:56:13;17.60;67.60
8103;DHT22;4094;49.948;11.574;2023-09-07T04:58:44;17.60;67.50
8103;DHT22;4094;49.948;11.574;2023-09-07T05:01:13;17.50;67.50
8103;DHT22;4094;49.948;11.574;2023-09-07T05:03:44;17.50;67.40
8103;DHT22;4094;49.948;11.574;2023-09-07T05:06:13;17.50;67.50
8103;DHT22;4094;49.948;11.574;2023-09-07T05:08:44;17.50;67.40
8103;DHT22;4094;49.948;11.574;2023-09-07T05:11:14;17.50;67.60
8103;DHT22;4094;49.948;11.574;2023-09-07T05:13:44;17.50;67.70
8103;DHT22;4094;49.948;11.574;2023-09-07T05:16:13;17.50;67.70
8103;DHT22;4094;49.948;11.574;2023-09-07T05:18:43;17.50;67.90
8103;DHT22;4094;49.948;11.574;2023-09-07T05:21:13;17.50;68.00
8103;DHT22;4094;49.948;11.574;2023-09-07T05:23:43;17.50;68.10
8103;DHT22;4094;49.948;11.574;2023-09-07T05:26:13;17.50;68.30
8103;DHT22;4094;49.948;11.574;2023-09-07T05:28:43;17.50;68.40
8103;DHT22;4094;49.948;11.574;2023-09-07T05:31:15;17.50;68.50
8103;DHT22;4094;49.948;11.574;2023-09-07T05:33:45;17.60;68.60
8103;DHT22;4094;49.948;11.574;2023-09-07T05:36:14;17.50;68.60
8103;DHT22;4094;49.948;11.574;2023-09-07T05:38:46;17.60;68.80
8103;DHT22;4094;49.948;11.574;2023-09-07T05:41:16;17.60;68.80
8103;DHT22;4094;49.948;11.574;2023-09-07T05:43:45;17.60;68.80
8103;DHT22;4094;49.948;11.574;2023-09-07T05:46:15;17.70;68.90
8103;DHT22;4094;49.948;11.574;2023-09-07T05:48:45;17.60;68.80
8103;DHT22;4094;49.948;11.574;2023-09-07T05:51:17;17.70;68.90
8103;DHT22;4094;49.948;11.574;2023-09-07T05:53:48;17.70;69.00
8103;DHT22;4094;49.948;11.574;2023-09-07T05:56:18;17.80;69.20
8103;DHT22;4094;49.948;11.574;2023-09-07T05:58:47;17.80;69.30
8103;DHT22;4094;49.948;11.574;2023-09-07T06:01:19;17.80;69.40
8103;DHT22;4094;49.948;11.574;2023-09-07T06:03:49;17.90;69.50
8103;DHT22;4094;49.948;11.574;2023-09-07T06:06:19;17.90;69.60
8103;DHT22;4094;49.948;11.574;2023-09-07T06:08:49;18.00;69.80
8103;DHT22;4094;49.948;11.574;2023-09-07T06:11:19;18.10;69.70
8103;DHT22;4094;49.948;11.574;2023-09-07T06:13:48;18.10;69.90
8103;DHT22;4094;49.948;11.574;2023-09-07T06:16:17;18.20;69.80
8103;DHT22;4094;49.948;11.574;2023-09-07T06:18:47;18.20;69.90
8103;DHT22;4094;49.948;11.574;2023-09-07T06:21:16;18.30;69.80
8103;DHT22;4094;49.948;11.574;2023-09-07T06:23:47;18.40;69.70
8103;DHT22;4094;49.948;11.574;2023-09-07T06:26:17;18.50;69.60
8103;DHT22;4094;49.948;11.574;2023-09-07T06:28:47;18.60;69.60
8103;DHT22;4094;49.948;11.574;2023-09-07T06:31:16;18.60;69.80
8103;DHT22;4094;49.948;11.574;2023-09-07T06:33:47;18.70;69.60
8103;DHT22;4094;49.948;11.574;2023-09-07T06:36:16;18.80;69.60
8103;DHT22;4094;49.948;11.574;2023-09-07T06:39:01;18.90;69.60
8103;DHT22;4094;49.948;11.574;2023-09-07T06:41:31;19.00;69.40
8103;DHT22;4094;49.948;11.574;2023-09-07T06:44:01;19.10;69.20
8103;DHT22;4094;49.948;11.574;2023-09-07T06:46:30;19.10;69.00
8103;DHT22;4094;49.948;11.574;2023-09-07T06:48:59;19.20;69.00
8103;DHT22;4094;49.948;11.574;2023-09-07T06:51:29;19.30;70.00
8103;DHT22;4094;49.948;11.574;2023-09-07T06:53:59;19.40;69.10
8103;DHT22;4094;49.948;11.574;2023-09-07T06:56:29;19.50;69.20
8103;DHT22;4094;49.948;11.574;2023-09-07T06:59:01;19.60;69.20
8103;DHT22;4094;49.948;11.574;2023-09-07T07:01:30;19.70;68.90
8103;DHT22;4094;49.948;11.574;2023-09-07T07:04:00;19.90;68.80
8103;DHT22;4094;49.948;11.574;2023-09-07T07:06:29;20.00;68.90
8103;DHT22;4094;49.948;11.574;2023-09-07T07:08:58;20.10;68.80
8103;DHT22;4094;49.948;11.574;2023-09-07T07:11:28;20.20;68.60
8103;DHT22;4094;49.948;11.574;2023-09-07T07:13:57;20.40;68.60
8103;DHT22;4094;49.948;11.574;2023-09-07T07:16:28;20.50;68.40
8103;DHT22;4094;49.948;11.574;2023-09-07T07:18:57;20.70;68.50
8103;DHT22;4094;49.948;11.574;2023-09-07T07:21:27;20.90;68.50
8103;DHT22;4094;49.948;11.574;2023-09-07T07:23:56;21.00;68.20
8103;DHT22;4094;49.948;11.574;2023-09-07T07:26:25;21.20;68.10
8103;DHT22;4094;49.948;11.574;2023-09-07T07:28:55;21.40;67.80
8103;DHT22;4094;49.948;11.574;2023-09-07T07:31:24;21.50;67.50
8103;DHT22;4094;49.948;11.574;2023-09-07T07:33:55;21.70;67.40
8103;DHT22;4094;49.948;11.574;2023-09-07T07:36:24;21.90;67.50
8103;DHT22;4094;49.948;11.574;2023-09-07T07:38:53;22.20;67.30
8103;DHT22;4094;49.948;11.574;2023-09-07T07:41:23;22.40;66.80
8103;DHT22;4094;49.948;11.574;2023-09-07T07:43:53;22.70;66.50
8103;DHT22;4094;49.948;11.574;2023-09-07T07:46:24;23.00;66.10
8103;DHT22;4094;49.948;11.574;2023-09-07T07:48:55;23.30;65.30
8103;DHT22;4094;49.948;11.574;2023-09-07T07:51:24;23.60;64.50
8103;DHT22;4094;49.948;11.574;2023-09-07T07:53:56;23.90;64.30
8103;DHT22;4094;49.948;11.574;2023-09-07T07:56:26;24.20;63.70
8103;DHT22;4094;49.948;11.574;2023-09-07T07:58:57;24.60;62.80
8103;DHT22;4094;49.948;11.574;2023-09-07T08:01:26;24.90;62.10
8103;DHT22;4094;49.948;11.574;2023-09-07T08:04:00;25.10;59.90
8103;DHT22;4094;49.948;11.574;2023-09-07T08:06:32;25.40;58.40
8103;DHT22;4094;49.948;11.574;2023-09-07T08:09:03;25.50;57.30
8103;DHT22;4094;49.948;11.574;2023-09-07T08:11:32;25.70;57.10
8103;DHT22;4094;49.948;11.574;2023-09-07T08:14:01;25.80;56.80
8103;DHT22;4094;49.948;11.574;2023-09-07T08:16:30;25.90;56.90
8103;DHT22;4094;49.948;11.574;2023-09-07T08:19:01;26.00;55.70
8103;DHT22;4094;49.948;11.574;2023-09-07T08:21:32;26.10;55.20
8103;DHT22;4094;49.948;11.574;2023-09-07T08:24:01;26.10;54.50
8103;DHT22;4094;49.948;11.574;2023-09-07T08:26:31;26.20;54.80
8103;DHT22;4094;49.948;11.574;2023-09-07T08:29:00;26.30;55.00
8103;DHT22;4094;49.948;11.574;2023-09-07T08:31:33;26.30;54.40
8103;DHT22;4094;49.948;11.574;2023-09-07T08:34:06;26.30;53.60
8103;DHT22;4094;49.948;11.574;2023-09-07T08:36:37;26.40;53.80
8103;DHT22;4094;49.948;11.574;2023-09-07T08:39:07;26.40;53.40
8103;DHT22;4094;49.948;11.574;2023-09-07T08:41:40;26.50;53.90
8103;DHT22;4094;49.948;11.574;2023-09-07T08:44:29;26.50;53.30
8103;DHT22;4094;49.948;11.574;2023-09-07T08:46:59;26.60;53.20
8103;DHT22;4094;49.948;11.574;2023-09-07T08:49:30;26.60;52.50
8103;DHT22;4094;49.948;11.574;2023-09-07T08:52:02;26.60;52.50
8103;DHT22;4094;49.948;11.574;2023-09-07T08:54:33;26.70;53.10
8103;DHT22;4094;49.948;11.574;2023-09-07T08:57:03;26.70;52.80
8103;DHT22;4094;49.948;11.574;2023-09-07T08:59:33;26.70;53.20
8103;DHT22;4094;49.948;11.574;2023-09-07T09:02:02;26.70;52.60
8103;DHT22;4094;49.948;11.574;2023-09-07T09:04:34;26.80;51.50
8103;DHT22;4094;49.948;11.574;2023-09-07T09:07:04;26.80;52.00
8103;DHT22;4094;49.948;11.574;2023-09-07T09:09:33;26.80;52.60
8103;DHT22;4094;49.948;11.574;2023-09-07T09:12:09;26.80;52.50
8103;DHT22;4094;49.948;11.574;2023-09-07T09:14:43;26.80;51.50
8103;DHT22;4094;49.948;11.574;2023-09-07T09:17:14;26.90;51.50
8103;DHT22;4094;49.948;11.574;2023-09-07T09:19:45;26.90;51.20
8103;DHT22;4094;49.948;11.574;2023-09-07T09:22:14;26.90;51.90
8103;DHT22;4094;49.948;11.574;2023-09-07T09:24:43;26.90;52.00
8103;DHT22;4094;49.948;11.574;2023-09-07T09:27:12;27.00;51.90
8103;DHT22;4094;49.948;11.574;2023-09-07T09:29:42;27.00;51.80
8103;DHT22;4094;49.948;11.574;2023-09-07T09:32:14;27.10;51.90
8103;DHT22;4094;49.948;11.574;2023-09-07T09:34:45;27.20;51.10
8103;DHT22;4094;49.948;11.574;2023-09-07T09:37:15;27.20;50.70
8103;DHT22;4094;49.948;11.574;2023-09-07T09:39:49;27.20;50.90
8103;DHT22;4094;49.948;11.574;2023-09-07T09:42:19;27.20;49.80
8103;DHT22;4094;49.948;11.574;2023-09-07T09:44:49;27.20;50.30
8103;DHT22;4094;49.948;11.574;2023-09-07T09:47:21;27.30;50.80
8103;DHT22;4094;49.948;11.574;2023-09-07T09:49:52;27.30;49.80
8103;DHT22;4094;49.948;11.574;2023-09-07T09:52:22;27.40;50.40
8103;DHT22;4094;49.948;11.574;2023-09-07T09:54:52;27.40;49.70
8103;DHT22;4094;49.948;11.574;2023-09-07T09:57:22;27.40;48.10
8103;DHT22;4094;49.948;11.574;2023-09-07T09:59:51;27.50;49.00
8103;DHT22;4094;49.948;11.574;2023-09-07T10:02:20;27.50;48.10
8103;DHT22;4094;49.948;11.574;2023-09-07T10:04:52;27.50;47.40
8103;DHT22;4094;49.948;11.574;2023-09-07T10:07:29;27.60;47.40
8103;DHT22;4094;49.948;11.574;2023-09-07T10:10:13;27.60;47.00
8103;DHT22;4094;49.948;11.574;2023-09-07T10:12:43;27.70;47.60
8103;DHT22;4094;49.948;11.574;2023-09-07T10:15:21;27.70;46.40
8103;DHT22;4094;49.948;11.574;2023-09-07T10:18:03;27.70;46.20
8103;DHT22;4094;49.948;11.574;2023-09-07T10:20:47;27.80;46.00
8103;DHT22;4094;49.948;11.574;2023-09-07T10:23:17;27.90;46.60
8103;DHT22;4094;49.948;11.574;2023-09-07T10:25:50;27.90;46.80
8103;DHT22;4094;49.948;11.574;2023-09-07T10:28:21;28.00;45.50
8103;DHT22;4094;49.948;11.574;2023-09-07T10:31:01;28.00;45.10
8103;DHT22;4094;49.948;11.574;2023-09-07T10:33:32;28.10;45.30
8103;DHT22;4094;49.948;11.574;2023-09-07T10:36:04;28.10;45.80
8103;DHT22;4094;49.948;11.574;2023-09-07T10:38:34;28.20;44.10
8103;DHT22;4094;49.948;11.574;2023-09-07T10:41:05;28.20;45.00
8103;DHT22;4094;49.948;11.574;2023-09-07T10:43:34;28.30;45.40
8103;DHT22;4094;49.948;11.574;2023-09-07T10:46:03;28.30;44.90
8103;DHT22;4094;49.948;11.574;2023-09-07T10:48:34;28.40;44.60
8103;DHT22;4094;49.948;11.574;2023-09-07T10:51:04;28.40;44.20
8103;DHT22;4094;49.948;11.574;2023-09-07T10:53:33;28.40;44.60
8103;DHT22;4094;49.948;11.574;2023-09-07T10:56:04;28.50;44.90
8103;DHT22;4094;49.948;11.574;2023-09-07T10:58:36;28.60;44.10
8103;DHT22;4094;49.948;11.574;2023-09-07T11:01:07;28.60;43.90
8103;DHT22;4094;49.948;11.574;2023-09-07T11:03:38;28.70;44.00
8103;DHT22;4094;49.948;11.574;2023-09-07T11:06:10;28.70;44.00
8103;DHT22;4094;49.948;11.574;2023-09-07T11:08:40;28.80;44.20
8103;DHT22;4094;49.948;11.574;2023-09-07T11:11:10;28.80;43.60
8103;DHT22;4094;49.948;11.574;2023-09-07T11:13:39;28.90;44.20
8103;DHT22;4094;49.948;11.574;2023-09-07T11:16:09;29.00;43.60
8103;DHT22;4094;49.948;11.574;2023-09-07T11:18:39;29.00;43.40
8103;DHT22;4094;49.948;11.574;2023-09-07T11:21:10;29.10;43.20
8103;DHT22;4094;49.948;11.574;2023-09-07T11:23:41;29.10;43.30
8103;DHT22;4094;49.948;11.574;2023-09-07T11:26:13;29.20;43.40
8103;DHT22;4094;49.948;11.574;2023-09-07T11:28:46;29.30;42.30
8103;DHT22;4094;49.948;11.574;2023-09-07T11:31:18;29.30;42.10
8103;DHT22;4094;49.948;11.574;2023-09-07T11:33:48;29.40;42.50
8103;DHT22;4094;49.948;11.574;2023-09-07T11:36:19;29.50;42.50
8103;DHT22;4094;49.948;11.574;2023-09-07T11:38:51;29.60;41.50
8103;DHT22;4094;49.948;11.574;2023-09-07T11:41:20;29.70;41.40
8103;DHT22;4094;49.948;11.574;2023-09-07T11:43:49;29.80;40.90
8103;DHT22;4094;49.948;11.574;2023-09-07T11:46:18;29.90;41.40
8103;DHT22;4094;49.948;11.574;2023-09-07T11:48:48;30.00;42.00
8103;DHT22;4094;49.948;11.574;2023-09-07T11:51:18;30.10;41.20
8103;DHT22;4094;49.948;11.574;2023-09-07T11:53:49;30.30;40.60
8103;DHT22;4094;49.948;11.574;2023-09-07T11:56:18;30.40;39.80
8103;DHT22;4094;49.948;11.574;2023-09-07T11:58:48;30.50;39.70
8103;DHT22;4094;49.948;11.574;2023-09-07T12:01:17;30.50;39.10
8103;DHT22;4094;49.948;11.574;2023-09-07T12:03:46;30.70;39.00
8103;DHT22;4094;49.948;11.574;2023-09-07T12:06:16;30.80;39.10
8103;DHT22;4094;49.948;11.574;2023-09-07T12:08:59;30.80;39.20
8103;DHT22;4094;49.948;11.574;2023-09-07T12:11:29;31.00;38.20
8103;DHT22;4094;49.948;11.574;2023-09-07T12:13:59;31.00;38.10
8103;DHT22;4094;49.948;11.574;2023-09-07T12:16:28;31.20;38.30
8103;DHT22;4094;49.948;11.574;2023-09-07T12:18:58;31.40;37.80
8103;DHT22;4094;49.948;11.574;2023-09-07T12:21:27;31.50;37.80
8103;DHT22;4094;49.948;11.574;2023-09-07T12:23:59;31.70;37.60
8103;DHT22;4094;49.948;11.574;2023-09-07T12:26:28;31.90;36.60
8103;DHT22;4094;49.948;11.574;2023-09-07T12:28:57;32.10;36.90
8103;DHT22;4094;49.948;11.574;2023-09-07T12:31:27;32.30;36.50
8103;DHT22;4094;49.948;11.574;2023-09-07T12:33:56;32.60;36.50
8103;DHT22;4094;49.948;11.574;2023-09-07T12:36:25;32.90;35.40
8103;DHT22;4094;49.948;11.574;2023-09-07T12:38:59;33.30;35.40
8103;DHT22;4094;49.948;11.574;2023-09-07T12:41:29;33.80;35.40
8103;DHT22;4094;49.948;11.574;2023-09-07T12:43:59;34.30;36.60
8103;DHT22;4094;49.948;11.574;2023-09-07T12:46:28;34.80;34.50
8103;DHT22;4094;49.948;11.574;2023-09-07T12:48:57;35.30;34.80
8103;DHT22;4094;49.948;11.574;2023-09-07T12:51:26;35.80;33.90
8103;DHT22;4094;49.948;11.574;2023-09-07T12:53:55;36.30;33.70
8103;DHT22;4094;49.948;11.574;2023-09-07T12:56:26;36.60;32.50
8103;DHT22;4094;49.948;11.574;2023-09-07T12:58:57;36.90;33.10
8103;DHT22;4094;49.948;11.574;2023-09-07T13:01:27;37.00;32.50
8103;DHT22;4094;49.948;11.574;2023-09-07T13:03:57;37.10;31.00
8103;DHT22;4094;49.948;11.574;2023-09-07T13:06:27;36.90;30.60
8103;DHT22;4094;49.948;11.574;2023-09-07T13:08:56;36.80;31.50
8103;DHT22;4094;49.948;11.574;2023-09-07T13:11:26;36.60;30.90
8103;DHT22;4094;49.948;11.574;2023-09-07T13:13:55;36.30;31.10
8103;DHT22;4094;49.948;11.574;2023-09-07T13:16:24;36.10;31.30
8103;DHT22;4094;49.948;11.574;2023-09-07T13:18:54;35.80;31.20
8103;DHT22;4094;49.948;11.574;2023-09-07T13:21:23;35.60;30.10
8103;DHT22;4094;49.948;11.574;2023-09-07T13:23:52;35.30;31.20
8103;DHT22;4094;49.948;11.574;2023-09-07T13:26:22;35.00;30.90
8103;DHT22;4094;49.948;11.574;2023-09-07T13:28:53;34.80;32.00
8103;DHT22;4094;49.948;11.574;2023-09-07T13:31:22;34.50;32.00
8103;DHT22;4094;49.948;11.574;2023-09-07T13:33:52;34.30;31.80
8103;DHT22;4094;49.948;11.574;2023-09-07T13:36:21;34.10;31.60
8103;DHT22;4094;49.948;11.574;2023-09-07T13:38:50;33.90;32.70
8103;DHT22;4094;49.948;11.574;2023-09-07T13:41:20;33.70;32.40
8103;DHT22;4094;49.948;11.574;2023-09-07T13:43:49;33.60;33.00
8103;DHT22;4094;49.948;11.574;2023-09-07T13:46:20;33.40;32.70
8103;DHT22;4094;49.948;11.574;2023-09-07T13:48:49;33.30;32.80
8103;DHT22;4094;49.948;11.574;2023-09-07T13:51:18;33.10;32.90
8103;DHT22;4094;49.948;11.574;2023-09-07T13:53:48;33.00;33.30
8103;DHT22;4094;49.948;11.574;2023-09-07T13:56:20;32.90;33.50
8103;DHT22;4094;49.948;11.574;2023-09-07T13:58:49;32.90;34.00
8103;DHT22;4094;49.948;11.574;2023-09-07T14:01:20;32.80;33.70
8103;DHT22;4094;49.948;11.574;2023-09-07T14:03:49;32.70;33.90
8103;DHT22;4094;49.948;11.574;2023-09-07T14:06:18;32.60;33.90
8103;DHT22;4094;49.948;11.574;2023-09-07T14:08:50;32.50;33.70
8103;DHT22;4094;49.948;11.574;2023-09-07T14:11:20;32.50;33.80
8103;DHT22;4094;49.948;11.574;2023-09-07T14:13:50;32.40;33.80
8103;DHT22;4094;49.948;11.574;2023-09-07T14:16:21;32.30;34.00
8103;DHT22;4094;49.948;11.574;2023-09-07T14:18:51;32.30;34.30
8103;DHT22;4094;49.948;11.574;2023-09-07T14:21:20;32.20;34.80
8103;DHT22;4094;49.948;11.574;2023-09-07T14:23:49;32.20;34.40
8103;DHT22;4094;49.948;11.574;2023-09-07T14:26:18;32.10;34.70
8103;DHT22;4094;49.948;11.574;2023-09-07T14:28:47;32.10;34.50
8103;DHT22;4094;49.948;11.574;2023-09-07T14:31:16;32.10;34.70
8103;DHT22;4094;49.948;11.574;2023-09-07T14:33:47;32.00;34.50
8103;DHT22;4094;49.948;11.574;2023-09-07T14:36:16;31.90;34.20
8103;DHT22;4094;49.948;11.574;2023-09-07T14:38:45;31.90;35.00
8103;DHT22;4094;49.948;11.574;2023-09-07T14:41:16;31.80;34.40
8103;DHT22;4094;49.948;11.574;2023-09-07T14:43:48;31.80;34.40
8103;DHT22;4094;49.948;11.574;2023-09-07T14:46:17;31.70;34.50
8103;DHT22;4094;49.948;11.574;2023-09-07T14:48:48;31.60;34.50
8103;DHT22;4094;49.948;11.574;2023-09-07T14:51:17;31.50;34.70
8103;DHT22;4094;49.948;11.574;2023-09-07T14:53:46;31.50;34.70
8103;DHT22;4094;49.948;11.574;2023-09-07T14:56:15;31.40;34.80
8103;DHT22;4094;49.948;11.574;2023-09-07T14:58:44;31.30;34.80
8103;DHT22;4094;49.948;11.574;2023-09-07T15:01:14;31.30;35.30
8103;DHT22;4094;49.948;11.574;2023-09-07T15:03:43;31.20;35.40
8103;DHT22;4094;49.948;11.574;2023-09-07T15:06:15;31.10;35.60
8103;DHT22;4094;49.948;11.574;2023-09-07T15:08:45;31.10;35.90
8103;DHT22;4094;49.948;11.574;2023-09-07T15:11:15;31.10;35.90
8103;DHT22;4094;49.948;11.574;2023-09-07T15:13:44;31.00;35.60
8103;DHT22;4094;49.948;11.574;2023-09-07T15:16:13;31.00;35.60
8103;DHT22;4094;49.948;11.574;2023-09-07T15:18:42;30.90;35.60
8103;DHT22;4094;49.948;11.574;2023-09-07T15:21:13;30.90;35.80
8103;DHT22;4094;49.948;11.574;2023-09-07T15:23:43;30.80;35.80
8103;DHT22;4094;49.948;11.574;2023-09-07T15:26:14;30.80;36.20
8103;DHT22;4094;49.948;11.574;2023-09-07T15:28:45;30.80;36.30
8103;DHT22;4094;49.948;11.574;2023-09-07T15:31:14;30.70;36.30
8103;DHT22;4094;49.948;11.574;2023-09-07T15:33:43;30.70;36.50
8103;DHT22;4094;49.948;11.574;2023-09-07T15:36:13;30.60;36.50
8103;DHT22;4094;49.948;11.574;2023-09-07T15:38:44;30.60;36.80
8103;DHT22;4094;49.948;11.574;2023-09-07T15:41:15;30.50;36.80
8103;DHT22;4094;49.948;11.574;2023-09-07T15:43:45;30.50;36.80
8103;DHT22;4094;49.948;11.574;2023-09-07T15:46:15;30.50;36.90
8103;DHT22;4094;49.948;11.574;2023-09-07T15:48:45;30.50;36.90
8103;DHT22;4094;49.948;11.574;2023-09-07T15:51:16;30.40;36.70
8103;DHT22;4094;49.948;11.574;2023-09-07T15:53:45;30.40;36.90
8103;DHT22;4094;49.948;11.574;2023-09-07T15:56:14;30.40;37.00
8103;DHT22;4094;49.948;11.574;2023-09-07T15:58:46;30.30;37.20
8103;DHT22;4094;49.948;11.574;2023-09-07T16:01:15;30.30;37.30
8103;DHT22;4094;49.948;11.574;2023-09-07T16:03:44;30.30;37.20